sensor_id;sensor_type;location;lat;lon;timestamp;temperature;humidity
60723;DHT22;46574;52.818;6.516;2023-05-25T00:02:17;9.50;99.90
60723;DHT22;46574;52.818;6.516;2023-05-25T00:04:43;9.50;99.90
60723;DHT22;46574;52.818;6.516;2023-05-25T00:07:13;9.40;99.90
60723;DHT22;46574;52.818;6.516;2023-05-25T00:09:40;9.40;99.90
60723;DHT22;46574;52.818;6.516;2023-05-25T00:12:06;9.40;99.90
60723;DHT22;46574;52.818;6.516;2023-05-25T00:14:32;9.40;99.90
60723;DHT22;46574;52.818;6.516;2023-05-25T00:16:58;9.50;99.90
60723;DHT22;46574;52.818;6.516;2023-05-25T00:19:27;9.50;99.90
60723;DHT22;46574;52.818;6.516;2023-05-25T00:21:53;9.50;99.90
60723;DHT22;46574;52.818;6.516;2023-05-25T00:24:18;9.50;99.90
60723;DHT22;46574;52.818;6.516;2023-05-25T00:26:44;9.50;99.90
60723;DHT22;46574;52.818;6.516;2023-05-25T00:29:10;9.50;99.90
60723;DHT22;46574;52.818;6.516;2023-05-25T00:31:36;9.50;99.90
60723;DHT22;46574;52.818;6.516;2023-05-25T00:34:02;9.50;99.90
60723;DHT22;46574;52.818;6.516;2023-05-25T00:36:28;9.50;99.90
60723;DHT22;46574;52.818;6.516;2023-05-25T00:38:53;9.50;99.90
60723;DHT22;46574;52.818;6.516;2023-05-25T00:41:19;9.40;99.90
60723;DHT22;46574;52.818;6.516;2023-05-25T00:43:45;9.40;99.90
60723;DHT22;46574;52.818;6.516;2023-05-25T00:46:13;9.40;99.90
60723;DHT22;46574;52.818;6.516;2023-05-25T00:48:39;9.40;99.90
60723;DHT22;46574;52.818;6.516;2023-05-25T00:51:06;9.40;99.90
60723;DHT22;46574;52.818;6.516;2023-05-25T00:53:32;9.40;99.90
60723;DHT22;46574;52.818;6.516;2023-05-25T00:56:12;9.40;99.90
60723;DHT22;46574;52.818;6.516;2023-05-25T00:58:39;9.30;99.90
60723;DHT22;46574;52.818;6.516;2023-05-25T01:01:06;9.30;99.90
60723;DHT22;46574;52.818;6.516;2023-05-25T01:03:37;9.30;99.90
60723;DHT22;46574;52.818;6.516;2023-05-25T01:06:10;9.30;99.90
60723;DHT22;46574;52.818;6.516;2023-05-25T01:08:39;9.30;99.90
60723;DHT22;46574;52.818;6.516;2023-05-25T01:11:07;9.30;99.90
60723;DHT22;46574;52.818;6.516;2023-05-25T01:13:34;9.30;99.90
60723;DHT22;46574;52.818;6.516;2023-05-25T01:16:03;9.30;99.90
60723;DHT22;46574;52.818;6.516;2023-05-25T01:18:29;9.30;99.90
60723;DHT22;46574;52.818;6.516;2023-05-25T01:21:02;9.30;99.90
60723;DHT22;46574;52.818;6.516;2023-05-25T01:23:41;9.20;99.90
60723;DHT22;46574;52.818;6.516;2023-05-25T01:26:11;9.20;99.90
60723;DHT22;46574;52.818;6.516;2023-05-25T01:28:41;9.10;99.90
60723;DHT22;46574;52.818;6.516;2023-05-25T01:31:08;9.10;99.90
60723;DHT22;46574;52.818;6.516;2023-05-25T01:33:35;9.10;99.90
60723;DHT22;46574;52.818;6.516;2023-05-25T01:36:02;9.10;99.90
60723;DHT22;46574;52.818;6.516;2023-05-25T01:38:28;9.10;99.90
60723;DHT22;46574;52.818;6.516;2023-05-25T01:40:53;9.10;99.90
60723;DHT22;46574;52.818;6.516;2023-05-25T01:43:19;9.00;99.90
60723;DHT22;46574;52.818;6.516;2023-05-25T01:45:45;9.00;99.90
60723;DHT22;46574;52.818;6.516;2023-05-25T01:48:17;8.90;99.90
60723;DHT22;46574;52.818;6.516;2023-05-25T01:50:53;8.80;99.90
60723;DHT22;46574;52.818;6.516;2023-05-25T01:53:25;8.70;99.90
60723;DHT22;46574;52.818;6.516;2023-05-25T01:56:05;8.70;99.90
60723;DHT22;46574;52.818;6.516;2023-05-25T01:58:39;8.70;99.90
60723;DHT22;46574;52.818;6.516;2023-05-25T02:01:08;8.60;99.90
60723;DHT22;46574;52.818;6.516;2023-05-25T02:03:35;8.60;99.90
60723;DHT22;46574;52.818;6.516;2023-05-25T02:06:01;8.50;99.90
60723;DHT22;46574;52.818;6.516;2023-05-25T02:08:27;8.40;99.90
60723;DHT22;46574;52.818;6.516;2023-05-25T02:10:53;8.40;99.90
60723;DHT22;46574;52.818;6.516;2023-05-25T02:13:18;8.20;99.90
60723;DHT22;46574;52.818;6.516;2023-05-25T02:15:44;8.10;99.90
60723;DHT22;46574;52.818;6.516;2023-05-25T02:18:10;8.10;99.90
60723;DHT22;46574;52.818;6.516;2023-05-25T02:20:36;8.20;99.90
60723;DHT22;46574;52.818;6.516;2023-05-25T02:23:01;8.20;99.90
60723;DHT22;46574;52.818;6.516;2023-05-25T02:25:27;8.20;99.90
60723;DHT22;46574;52.818;6.516;2023-05-25T02:27:53;8.20;99.90
60723;DHT22;46574;52.818;6.516;2023-05-25T02:30:18;8.30;99.90
60723;DHT22;46574;52.818;6.516;2023-05-25T02:32:45;8.20;99.90
60723;DHT22;46574;52.818;6.516;2023-05-25T02:35:10;8.30;99.90
60723;DHT22;46574;52.818;6.516;2023-05-25T02:37:36;8.30;99.90
60723;DHT22;46574;52.818;6.516;2023-05-25T02:40:02;8.30;99.90
60723;DHT22;46574;52.818;6.516;2023-05-25T02:42:28;8.30;99.90
60723;DHT22;46574;52.818;6.516;2023-05-25T02:44:54;8.40;99.90
60723;DHT22;46574;52.818;6.516;2023-05-25T02:47:19;8.40;99.90
60723;DHT22;46574;52.818;6.516;2023-05-25T02:49:46;8.40;99.90
60723;DHT22;46574;52.818;6.516;2023-05-25T02:52:11;8.40;99.90
60723;DHT22;46574;52.818;6.516;2023-05-25T02:54:37;8.30;99.90
60723;DHT22;46574;52.818;6.516;2023-05-25T02:57:04;8.20;99.90
60723;DHT22;46574;52.818;6.516;2023-05-25T02:59:29;8.20;99.90
60723;DHT22;46574;52.818;6.516;2023-05-25T03:01:55;8.20;99.90
60723;DHT22;46574;52.818;6.516;2023-05-25T03:04:21;8.20;99.90
60723;DHT22;46574;52.818;6.516;2023-05-25T03:06:46;8.30;99.90
60723;DHT22;46574;52.818;6.516;2023-05-25T03:09:12;8.30;99.90
60723;DHT22;46574;52.818;6.516;2023-05-25T03:11:38;8.30;99.90
60723;DHT22;46574;52.818;6.516;2023-05-25T03:14:04;8.30;99.90
60723;DHT22;46574;52.818;6.516;2023-05-25T03:16:29;8.30;99.90
60723;DHT22;46574;52.818;6.516;2023-05-25T03:18:55;8.30;99.90
60723;DHT22;46574;52.818;6.516;2023-05-25T03:21:21;8.20;99.90
60723;DHT22;46574;52.818;6.516;2023-05-25T03:23:48;8.20;99.90
60723;DHT22;46574;52.818;6.516;2023-05-25T03:26:14;8.10;99.90
60723;DHT22;46574;52.818;6.516;2023-05-25T03:28:41;8.10;99.90
60723;DHT22;46574;52.818;6.516;2023-05-25T03:31:07;8.00;99.90
60723;DHT22;46574;52.818;6.516;2023-05-25T03:33:33;8.00;99.90
60723;DHT22;46574;52.818;6.516;2023-05-25T03:35:58;8.10;99.90
60723;DHT22;46574;52.818;6.516;2023-05-25T03:38:24;8.10;99.90
60723;DHT22;46574;52.818;6.516;2023-05-25T03:40:50;8.10;99.90
60723;DHT22;46574;52.818;6.516;2023-05-25T03:43:17;8.00;99.90
60723;DHT22;46574;52.818;6.516;2023-05-25T03:45:42;8.00;99.90
60723;DHT22;46574;52.818;6.516;2023-05-25T03:48:08;8.00;99.90
60723;DHT22;46574;52.818;6.516;2023-05-25T03:50:33;8.10;99.90
60723;DHT22;46574;52.818;6.516;2023-05-25T03:52:59;8.10;99.90
60723;DHT22;46574;52.818;6.516;2023-05-25T03:55:25;8.10;99.90
60723;DHT22;46574;52.818;6.516;2023-05-25T03:57:50;8.20;99.90
60723;DHT22;46574;52.818;6.516;2023-05-25T04:00:16;8.20;99.90
60723;DHT22;46574;52.818;6.516;2023-05-25T04:02:42;8.20;99.90
60723;DHT22;46574;52.818;6.516;2023-05-25T04:05:08;8.20;99.90
60723;DHT22;46574;52.818;6.516;2023-05-25T04:07:34;8.20;99.90
60723;DHT22;46574;52.818;6.516;2023-05-25T04:10:02;8.20;99.90
60723;DHT22;46574;52.818;6.516;2023-05-25T04:12:27;8.20;99.90
60723;DHT22;46574;52.818;6.516;2023-05-25T04:14:53;8.20;99.90
60723;DHT22;46574;52.818;6.516;2023-05-25T04:17:19;8.20;99.90
60723;DHT22;46574;52.818;6.516;2023-05-25T04:19:49;8.20;99.90
60723;DHT22;46574;52.818;6.516;2023-05-25T04:22:14;8.30;99.90
60723;DHT22;46574;52.818;6.516;2023-05-25T04:24:40;8.30;99.90
60723;DHT22;46574;52.818;6.516;2023-05-25T04:27:06;8.30;99.90
60723;DHT22;46574;52.818;6.516;2023-05-25T04:29:31;8.40;99.90
60723;DHT22;46574;52.818;6.516;2023-05-25T04:31:57;8.40;99.90
60723;DHT22;46574;52.818;6.516;2023-05-25T04:34:23;8.50;99.90
60723;DHT22;46574;52.818;6.516;2023-05-25T04:36:49;8.50;99.90
60723;DHT22;46574;52.818;6.516;2023-05-25T04:39:14;8.60;99.90
60723;DHT22;46574;52.818;6.516;2023-05-25T04:41:42;8.60;99.90
60723;DHT22;46574;52.818;6.516;2023-05-25T04:44:07;8.70;99.90
60723;DHT22;46574;52.818;6.516;2023-05-25T04:46:34;8.70;99.90
60723;DHT22;46574;52.818;6.516;2023-05-25T04:49:03;8.70;99.90
60723;DHT22;46574;52.818;6.516;2023-05-25T04:51:30;8.80;99.90
60723;DHT22;46574;52.818;6.516;2023-05-25T04:53:56;8.80;99.90
60723;DHT22;46574;52.818;6.516;2023-05-25T04:56:23;8.80;99.90
60723;DHT22;46574;52.818;6.516;2023-05-25T04:58:51;8.90;99.90
60723;DHT22;46574;52.818;6.516;2023-05-25T05:01:17;9.00;99.90
60723;DHT22;46574;52.818;6.516;2023-05-25T05:03:45;9.00;99.90
60723;DHT22;46574;52.818;6.516;2023-05-25T05:06:11;9.10;99.90
60723;DHT22;46574;52.818;6.516;2023-05-25T05:08:36;9.20;99.90
60723;DHT22;46574;52.818;6.516;2023-05-25T05:11:02;9.30;99.90
60723;DHT22;46574;52.818;6.516;2023-05-25T05:13:28;9.40;99.90
60723;DHT22;46574;52.818;6.516;2023-05-25T05:15:53;9.50;99.90
60723;DHT22;46574;52.818;6.516;2023-05-25T05:18:19;9.50;99.90
60723;DHT22;46574;52.818;6.516;2023-05-25T05:20:45;9.60;99.90
60723;DHT22;46574;52.818;6.516;2023-05-25T05:23:12;9.70;99.90
60723;DHT22;46574;52.818;6.516;2023-05-25T05:25:38;9.80;99.90
60723;DHT22;46574;52.818;6.516;2023-05-25T05:28:03;9.90;99.90
60723;DHT22;46574;52.818;6.516;2023-05-25T05:30:29;10.00;99.90
60723;DHT22;46574;52.818;6.516;2023-05-25T05:32:55;10.10;99.90
60723;DHT22;46574;52.818;6.516;2023-05-25T05:35:21;10.20;99.90
60723;DHT22;46574;52.818;6.516;2023-05-25T05:37:47;10.20;99.90
60723;DHT22;46574;52.818;6.516;2023-05-25T05:40:13;10.30;99.90
60723;DHT22;46574;52.818;6.516;2023-05-25T05:42:39;10.50;99.90
60723;DHT22;46574;52.818;6.516;2023-05-25T05:45:05;10.50;99.90
60723;DHT22;46574;52.818;6.516;2023-05-25T05:47:31;10.70;99.90
60723;DHT22;46574;52.818;6.516;2023-05-25T05:49:56;10.70;99.90
60723;DHT22;46574;52.818;6.516;2023-05-25T05:52:22;10.90;99.90
60723;DHT22;46574;52.818;6.516;2023-05-25T05:54:47;11.00;99.90
60723;DHT22;46574;52.818;6.516;2023-05-25T05:57:13;11.10;99.90
60723;DHT22;46574;52.818;6.516;2023-05-25T05:59:39;11.20;99.90
60723;DHT22;46574;52.818;6.516;2023-05-25T06:02:04;11.30;99.90
60723;DHT22;46574;52.818;6.516;2023-05-25T06:04:32;11.30;99.90
60723;DHT22;46574;52.818;6.516;2023-05-25T06:06:57;11.40;99.90
60723;DHT22;46574;52.818;6.516;2023-05-25T06:09:23;11.40;99.90
60723;DHT22;46574;52.818;6.516;2023-05-25T06:11:50;11.50;99.90
60723;DHT22;46574;52.818;6.516;2023-05-25T06:14:16;11.60;99.90
60723;DHT22;46574;52.818;6.516;2023-05-25T06:16:42;11.70;99.90
60723;DHT22;46574;52.818;6.516;2023-05-25T06:19:08;11.70;99.90
60723;DHT22;46574;52.818;6.516;2023-05-25T06:21:33;11.80;99.90
60723;DHT22;46574;52.818;6.516;2023-05-25T06:23:59;11.80;99.90
60723;DHT22;46574;52.818;6.516;2023-05-25T06:26:25;11.90;99.90
60723;DHT22;46574;52.818;6.516;2023-05-25T06:28:51;11.90;99.90
60723;DHT22;46574;52.818;6.516;2023-05-25T06:31:17;11.90;99.90
60723;DHT22;46574;52.818;6.516;2023-05-25T06:33:43;12.00;99.90
60723;DHT22;46574;52.818;6.516;2023-05-25T06:36:08;12.10;99.90
60723;DHT22;46574;52.818;6.516;2023-05-25T06:38:35;12.10;99.90
60723;DHT22;46574;52.818;6.516;2023-05-25T06:41:01;12.30;99.90
60723;DHT22;46574;52.818;6.516;2023-05-25T06:43:29;12.40;99.90
60723;DHT22;46574;52.818;6.516;2023-05-25T06:45:56;12.50;99.90
60723;DHT22;46574;52.818;6.516;2023-05-25T06:48:22;12.60;99.90
60723;DHT22;46574;52.818;6.516;2023-05-25T06:50:48;12.60;99.90
60723;DHT22;46574;52.818;6.516;2023-05-25T06:53:14;12.70;99.90
60723;DHT22;46574;52.818;6.516;2023-05-25T06:55:40;12.70;99.90
60723;DHT22;46574;52.818;6.516;2023-05-25T06:58:05;12.90;99.90
60723;DHT22;46574;52.818;6.516;2023-05-25T07:00:31;12.90;99.90
60723;DHT22;46574;52.818;6.516;2023-05-25T07:02:57;12.90;99.90
60723;DHT22;46574;52.818;6.516;2023-05-25T07:05:22;13.10;99.90
60723;DHT22;46574;52.818;6.516;2023-05-25T07:07:48;13.20;99.90
60723;DHT22;46574;52.818;6.516;2023-05-25T07:10:13;13.30;99.90
60723;DHT22;46574;52.818;6.516;2023-05-25T07:12:39;13.30;99.90
60723;DHT22;46574;52.818;6.516;2023-05-25T07:15:05;13.30;99.90
60723;DHT22;46574;52.818;6.516;2023-05-25T07:17:31;13.30;99.90
60723;DHT22;46574;52.818;6.516;2023-05-25T07:19:57;13.40;99.90
60723;DHT22;46574;52.818;6.516;2023-05-25T07:22:24;13.50;99.90
60723;DHT22;46574;52.818;6.516;2023-05-25T07:24:50;13.60;99.90
60723;DHT22;46574;52.818;6.516;2023-05-25T07:27:15;13.70;99.90
60723;DHT22;46574;52.818;6.516;2023-05-25T07:29:41;13.70;99.90
60723;DHT22;46574;52.818;6.516;2023-05-25T07:32:07;13.80;99.90
60723;DHT22;46574;52.818;6.516;2023-05-25T07:34:33;13.90;99.90
60723;DHT22;46574;52.818;6.516;2023-05-25T07:36:59;14.00;99.90
60723;DHT22;46574;52.818;6.516;2023-05-25T07:39:24;14.00;99.90
60723;DHT22;46574;52.818;6.516;2023-05-25T07:41:50;14.00;99.90
60723;DHT22;46574;52.818;6.516;2023-05-25T07:44:16;14.20;99.90
60723;DHT22;46574;52.818;6.516;2023-05-25T07:46:42;14.30;99.90
60723;DHT22;46574;52.818;6.516;2023-05-25T07:49:08;14.30;99.90
60723;DHT22;46574;52.818;6.516;2023-05-25T07:51:38;14.40;99.90
60723;DHT22;46574;52.818;6.516;2023-05-25T07:54:03;14.50;99.90
60723;DHT22;46574;52.818;6.516;2023-05-25T07:56:29;14.50;99.90
60723;DHT22;46574;52.818;6.516;2023-05-25T07:58:55;14.50;99.90
60723;DHT22;46574;52.818;6.516;2023-05-25T08:01:21;14.40;99.90
60723;DHT22;46574;52.818;6.516;2023-05-25T08:03:47;14.60;99.90
60723;DHT22;46574;52.818;6.516;2023-05-25T08:06:13;14.60;99.90
60723;DHT22;46574;52.818;6.516;2023-05-25T08:08:39;14.70;99.90
60723;DHT22;46574;52.818;6.516;2023-05-25T08:11:06;14.90;99.90
60723;DHT22;46574;52.818;6.516;2023-05-25T08:13:32;15.00;99.90
60723;DHT22;46574;52.818;6.516;2023-05-25T08:15:57;15.10;99.90
60723;DHT22;46574;52.818;6.516;2023-05-25T08:18:23;15.20;99.90
60723;DHT22;46574;52.818;6.516;2023-05-25T08:20:49;15.10;99.90
60723;DHT22;46574;52.818;6.516;2023-05-25T08:23:14;14.90;99.90
60723;DHT22;46574;52.818;6.516;2023-05-25T08:25:40;15.00;99.90
60723;DHT22;46574;52.818;6.516;2023-05-25T08:28:06;15.00;99.90
60723;DHT22;46574;52.818;6.516;2023-05-25T08:30:32;15.10;99.90
60723;DHT22;46574;52.818;6.516;2023-05-25T08:32:58;15.20;99.90
60723;DHT22;46574;52.818;6.516;2023-05-25T08:35:24;15.30;99.90
60723;DHT22;46574;52.818;6.516;2023-05-25T08:37:49;15.40;99.90
60723;DHT22;46574;52.818;6.516;2023-05-25T08:40:17;15.50;99.90
60723;DHT22;46574;52.818;6.516;2023-05-25T08:42:44;15.50;99.90
60723;DHT22;46574;52.818;6.516;2023-05-25T08:45:11;15.40;99.90
60723;DHT22;46574;52.818;6.516;2023-05-25T08:47:40;15.30;99.90
60723;DHT22;46574;52.818;6.516;2023-05-25T08:50:09;15.20;99.90
60723;DHT22;46574;52.818;6.516;2023-05-25T08:52:37;15.20;99.90
60723;DHT22;46574;52.818;6.516;2023-05-25T08:55:04;15.20;99.90
60723;DHT22;46574;52.818;6.516;2023-05-25T08:57:37;15.00;99.90
60723;DHT22;46574;52.818;6.516;2023-05-25T09:00:06;15.00;99.90
60723;DHT22;46574;52.818;6.516;2023-05-25T09:05:08;15.00;99.90
60723;DHT22;46574;52.818;6.516;2023-05-25T09:07:34;14.90;99.90
60723;DHT22;46574;52.818;6.516;2023-05-25T09:10:00;14.80;99.90
60723;DHT22;46574;52.818;6.516;2023-05-25T09:12:29;14.70;99.90
60723;DHT22;46574;52.818;6.516;2023-05-25T09:14:58;14.70;99.90
60723;DHT22;46574;52.818;6.516;2023-05-25T09:17:24;14.70;99.90
60723;DHT22;46574;52.818;6.516;2023-05-25T09:19:50;14.60;99.90
60723;DHT22;46574;52.818;6.516;2023-05-25T09:22:16;14.70;99.90
60723;DHT22;46574;52.818;6.516;2023-05-25T09:24:42;14.70;99.90
60723;DHT22;46574;52.818;6.516;2023-05-25T09:27:15;14.80;99.90
60723;DHT22;46574;52.818;6.516;2023-05-25T09:29:41;14.90;99.90
60723;DHT22;46574;52.818;6.516;2023-05-25T09:32:07;15.10;99.90
60723;DHT22;46574;52.818;6.516;2023-05-25T09:34:33;15.20;99.90
60723;DHT22;46574;52.818;6.516;2023-05-25T09:37:02;15.20;99.90
60723;DHT22;46574;52.818;6.516;2023-05-25T09:39:27;15.30;99.90
60723;DHT22;46574;52.818;6.516;2023-05-25T09:41:54;15.40;99.90
60723;DHT22;46574;52.818;6.516;2023-05-25T09:44:20;15.30;99.90
60723;DHT22;46574;52.818;6.516;2023-05-25T09:46:46;15.20;99.90
60723;DHT22;46574;52.818;6.516;2023-05-25T09:49:12;15.20;99.90
60723;DHT22;46574;52.818;6.516;2023-05-25T09:51:38;15.40;99.90
60723;DHT22;46574;52.818;6.516;2023-05-25T09:54:08;15.90;99.90
60723;DHT22;46574;52.818;6.516;2023-05-25T09:56:34;16.50;99.90
60723;DHT22;46574;52.818;6.516;2023-05-25T09:59:00;16.90;99.90
60723;DHT22;46574;52.818;6.516;2023-05-25T10:01:26;17.10;99.90
60723;DHT22;46574;52.818;6.516;2023-05-25T10:03:54;16.70;99.90
60723;DHT22;46574;52.818;6.516;2023-05-25T10:06:24;16.20;99.90
60723;DHT22;46574;52.818;6.516;2023-05-25T10:08:51;15.90;99.90
60723;DHT22;46574;52.818;6.516;2023-05-25T10:11:18;15.80;99.90
60723;DHT22;46574;52.818;6.516;2023-05-25T10:13:46;16.20;99.90
60723;DHT22;46574;52.818;6.516;2023-05-25T10:16:16;16.40;99.90
60723;DHT22;46574;52.818;6.516;2023-05-25T10:18:54;16.20;99.90
60723;DHT22;46574;52.818;6.516;2023-05-25T10:21:24;16.20;99.90
60723;DHT22;46574;52.818;6.516;2023-05-25T10:23:53;16.60;99.90
60723;DHT22;46574;52.818;6.516;2023-05-25T10:26:23;16.50;99.90
60723;DHT22;46574;52.818;6.516;2023-05-25T10:28:50;16.30;99.90
60723;DHT22;46574;52.818;6.516;2023-05-25T10:31:20;16.00;99.90
60723;DHT22;46574;52.818;6.516;2023-05-25T10:33:46;15.80;99.90
60723;DHT22;46574;52.818;6.516;2023-05-25T10:36:12;15.80;99.90
60723;DHT22;46574;52.818;6.516;2023-05-25T10:38:39;16.20;99.90
60723;DHT22;46574;52.818;6.516;2023-05-25T10:41:08;16.20;99.90
60723;DHT22;46574;52.818;6.516;2023-05-25T10:43:35;16.30;99.90
60723;DHT22;46574;52.818;6.516;2023-05-25T10:46:01;16.50;99.90
60723;DHT22;46574;52.818;6.516;2023-05-25T10:48:37;16.40;99.90
60723;DHT22;46574;52.818;6.516;2023-05-25T10:51:03;16.10;99.90
60723;DHT22;46574;52.818;6.516;2023-05-25T10:53:29;16.00;99.90
60723;DHT22;46574;52.818;6.516;2023-05-25T10:58:26;16.60;99.90
60723;DHT22;46574;52.818;6.516;2023-05-25T11:01:06;17.00;99.90
60723;DHT22;46574;52.818;6.516;2023-05-25T11:06:17;16.70;99.90
60723;DHT22;46574;52.818;6.516;2023-05-25T11:08:58;16.50;99.90
60723;DHT22;46574;52.818;6.516;2023-05-25T11:14:30;17.10;99.90
60723;DHT22;46574;52.818;6.516;2023-05-25T11:19:53;16.60;99.90
60723;DHT22;46574;52.818;6.516;2023-05-25T11:22:34;16.50;99.90
60723;DHT22;46574;52.818;6.516;2023-05-25T11:25:02;16.50;99.90
60723;DHT22;46574;52.818;6.516;2023-05-25T11:27:31;16.40;99.90
60723;DHT22;46574;52.818;6.516;2023-05-25T11:29:58;16.40;99.90
60723;DHT22;46574;52.818;6.516;2023-05-25T11:32:27;16.60;99.90
60723;DHT22;46574;52.818;6.516;2023-05-25T11:34:54;16.90;99.90
60723;DHT22;46574;52.818;6.516;2023-05-25T11:37:20;17.00;99.90
60723;DHT22;46574;52.818;6.516;2023-05-25T11:39:52;17.10;99.90
60723;DHT22;46574;52.818;6.516;2023-05-25T11:42:22;17.30;99.90
60723;DHT22;46574;52.818;6.516;2023-05-25T11:44:49;17.10;99.90
60723;DHT22;46574;52.818;6.516;2023-05-25T11:47:15;16.80;99.90
60723;DHT22;46574;52.818;6.516;2023-05-25T11:49:45;16.70;99.90
60723;DHT22;46574;52.818;6.516;2023-05-25T11:52:13;16.80;99.90
60723;DHT22;46574;52.818;6.516;2023-05-25T11:54:39;17.00;99.90
60723;DHT22;46574;52.818;6.516;2023-05-25T11:57:24;17.20;99.90
60723;DHT22;46574;52.818;6.516;2023-05-25T11:59:57;17.20;99.90
60723;DHT22;46574;52.818;6.516;2023-05-25T12:02:24;17.00;99.90
60723;DHT22;46574;52.818;6.516;2023-05-25T12:04:59;16.80;99.90
60723;DHT22;46574;52.818;6.516;2023-05-25T12:07:29;17.00;99.90
60723;DHT22;46574;52.818;6.516;2023-05-25T12:10:06;17.00;99.90
60723;DHT22;46574;52.818;6.516;2023-05-25T12:12:49;17.20;99.90
60723;DHT22;46574;52.818;6.516;2023-05-25T12:15:22;17.40;99.90
60723;DHT22;46574;52.818;6.516;2023-05-25T12:17:49;17.40;99.90
60723;DHT22;46574;52.818;6.516;2023-05-25T12:20:16;17.30;99.90
60723;DHT22;46574;52.818;6.516;2023-05-25T12:22:43;16.90;99.90
60723;DHT22;46574;52.818;6.516;2023-05-25T12:25:11;16.90;99.90
60723;DHT22;46574;52.818;6.516;2023-05-25T12:27:37;17.10;99.90
60723;DHT22;46574;52.818;6.516;2023-05-25T12:30:06;17.20;99.90
60723;DHT22;46574;52.818;6.516;2023-05-25T12:32:32;17.30;99.90
60723;DHT22;46574;52.818;6.516;2023-05-25T12:35:07;17.30;99.90
60723;DHT22;46574;52.818;6.516;2023-05-25T12:37:33;17.40;99.90
60723;DHT22;46574;52.818;6.516;2023-05-25T12:39:59;17.30;99.90
60723;DHT22;46574;52.818;6.516;2023-05-25T12:42:25;17.20;99.90
60723;DHT22;46574;52.818;6.516;2023-05-25T12:44:56;17.00;99.90
60723;DHT22;46574;52.818;6.516;2023-05-25T12:47:23;17.00;99.90
60723;DHT22;46574;52.818;6.516;2023-05-25T12:49:53;17.20;99.90
60723;DHT22;46574;52.818;6.516;2023-05-25T12:52:41;17.30;99.90
60723;DHT22;46574;52.818;6.516;2023-05-25T12:55:30;17.40;99.90
60723;DHT22;46574;52.818;6.516;2023-05-25T12:58:03;17.40;99.90
60723;DHT22;46574;52.818;6.516;2023-05-25T13:00:38;17.40;99.90
60723;DHT22;46574;52.818;6.516;2023-05-25T13:03:05;17.60;99.90
60723;DHT22;46574;52.818;6.516;2023-05-25T13:05:34;17.50;99.90
60723;DHT22;46574;52.818;6.516;2023-05-25T13:08:04;17.40;99.90
60723;DHT22;46574;52.818;6.516;2023-05-25T13:10:30;17.40;99.90
60723;DHT22;46574;52.818;6.516;2023-05-25T13:12:57;17.30;99.90
60723;DHT22;46574;52.818;6.516;2023-05-25T13:15:24;17.30;99.90
60723;DHT22;46574;52.818;6.516;2023-05-25T13:17:51;17.30;99.90
60723;DHT22;46574;52.818;6.516;2023-05-25T13:20:19;17.50;99.90
60723;DHT22;46574;52.818;6.516;2023-05-25T13:22:47;17.50;99.50
60723;DHT22;46574;52.818;6.516;2023-05-25T13:25:13;17.50;99.90
60723;DHT22;46574;52.818;6.516;2023-05-25T13:27:50;17.50;99.90
60723;DHT22;46574;52.818;6.516;2023-05-25T13:30:16;17.50;99.90
60723;DHT22;46574;52.818;6.516;2023-05-25T13:32:42;17.50;99.90
60723;DHT22;46574;52.818;6.516;2023-05-25T13:35:09;17.50;99.10
60723;DHT22;46574;52.818;6.516;2023-05-25T13:37:55;17.50;99.90
60723;DHT22;46574;52.818;6.516;2023-05-25T13:40:21;17.70;99.90
60723;DHT22;46574;52.818;6.516;2023-05-25T13:42:47;17.70;99.90
60723;DHT22;46574;52.818;6.516;2023-05-25T13:45:12;17.80;99.90
60723;DHT22;46574;52.818;6.516;2023-05-25T13:47:38;17.80;99.90
60723;DHT22;46574;52.818;6.516;2023-05-25T13:50:04;17.90;99.90
60723;DHT22;46574;52.818;6.516;2023-05-25T13:52:30;18.00;99.90
60723;DHT22;46574;52.818;6.516;2023-05-25T13:54:56;18.10;99.90
60723;DHT22;46574;52.818;6.516;2023-05-25T13:57:21;18.20;99.90
60723;DHT22;46574;52.818;6.516;2023-05-25T13:59:47;18.30;98.90
60723;DHT22;46574;52.818;6.516;2023-05-25T14:02:12;18.30;98.30
60723;DHT22;46574;52.818;6.516;2023-05-25T14:04:38;18.30;97.30
60723;DHT22;46574;52.818;6.516;2023-05-25T14:07:03;18.30;98.40
60723;DHT22;46574;52.818;6.516;2023-05-25T14:09:29;18.30;97.80
60723;DHT22;46574;52.818;6.516;2023-05-25T14:11:56;18.30;98.30
60723;DHT22;46574;52.818;6.516;2023-05-25T14:14:21;18.40;97.80
60723;DHT22;46574;52.818;6.516;2023-05-25T14:16:47;18.40;98.10
60723;DHT22;46574;52.818;6.516;2023-05-25T14:19:12;18.60;98.60
60723;DHT22;46574;52.818;6.516;2023-05-25T14:21:41;18.50;95.60
60723;DHT22;46574;52.818;6.516;2023-05-25T14:24:06;18.40;93.90
60723;DHT22;46574;52.818;6.516;2023-05-25T14:26:32;18.50;96.00
60723;DHT22;46574;52.818;6.516;2023-05-25T14:28:58;18.70;96.50
60723;DHT22;46574;52.818;6.516;2023-05-25T14:31:23;18.60;95.40
60723;DHT22;46574;52.818;6.516;2023-05-25T14:33:49;18.80;94.50
60723;DHT22;46574;52.818;6.516;2023-05-25T14:36:14;19.20;93.70
60723;DHT22;46574;52.818;6.516;2023-05-25T14:38:40;19.50;93.40
60723;DHT22;46574;52.818;6.516;2023-05-25T14:41:06;19.40;93.10
60723;DHT22;46574;52.818;6.516;2023-05-25T14:43:31;19.40;93.50
60723;DHT22;46574;52.818;6.516;2023-05-25T14:45:59;19.20;93.40
60723;DHT22;46574;52.818;6.516;2023-05-25T14:48:24;19.20;94.80
60723;DHT22;46574;52.818;6.516;2023-05-25T14:50:51;19.20;93.50
60723;DHT22;46574;52.818;6.516;2023-05-25T14:53:17;19.20;92.60
60723;DHT22;46574;52.818;6.516;2023-05-25T14:55:43;19.20;92.40
60723;DHT22;46574;52.818;6.516;2023-05-25T14:58:09;18.90;93.00
60723;DHT22;46574;52.818;6.516;2023-05-25T15:00:35;18.90;90.60
60723;DHT22;46574;52.818;6.516;2023-05-25T15:03:01;18.90;93.50
60723;DHT22;46574;52.818;6.516;2023-05-25T15:05:26;19.00;93.10
60723;DHT22;46574;52.818;6.516;2023-05-25T15:07:52;18.70;89.70
60723;DHT22;46574;52.818;6.516;2023-05-25T15:10:17;18.70;92.00
60723;DHT22;46574;52.818;6.516;2023-05-25T15:12:43;18.70;92.20
60723;DHT22;46574;52.818;6.516;2023-05-25T15:15:09;18.60;92.40
60723;DHT22;46574;52.818;6.516;2023-05-25T15:17:35;18.60;90.90
60723;DHT22;46574;52.818;6.516;2023-05-25T15:20:01;18.50;91.30
60723;DHT22;46574;52.818;6.516;2023-05-25T15:22:27;18.70;90.30
60723;DHT22;46574;52.818;6.516;2023-05-25T15:24:53;18.50;91.20
60723;DHT22;46574;52.818;6.516;2023-05-25T15:27:18;18.50;91.10
60723;DHT22;46574;52.818;6.516;2023-05-25T15:29:44;18.70;90.90
60723;DHT22;46574;52.818;6.516;2023-05-25T15:32:11;18.80;90.20
60723;DHT22;46574;52.818;6.516;2023-05-25T15:34:38;18.80;90.40
60723;DHT22;46574;52.818;6.516;2023-05-25T15:37:04;18.50;90.20
60723;DHT22;46574;52.818;6.516;2023-05-25T15:39:30;17.80;91.40
60723;DHT22;46574;52.818;6.516;2023-05-25T15:41:55;17.60;93.60
60723;DHT22;46574;52.818;6.516;2023-05-25T15:44:21;17.80;94.20
60723;DHT22;46574;52.818;6.516;2023-05-25T15:46:47;18.00;93.50
60723;DHT22;46574;52.818;6.516;2023-05-25T15:49:12;18.20;93.70